sensor_id;sensor_type;location;lat;lon;timestamp;temperature;humidity
2030;DHT22;1020;48.854;8.830;2023-04-29T00:00:36;13.70;99.90
2030;DHT22;1020;48.854;8.830;2023-04-29T00:03:04;13.70;99.90
2030;DHT22;1020;48.854;8.830;2023-04-29T00:05:31;13.70;99.90
2030;DHT22;1020;48.854;8.830;2023-04-29T00:07:59;13.80;99.90
2030;DHT22;1020;48.854;8.830;2023-04-29T00:10:25;13.70;99.90
2030;DHT22;1020;48.854;8.830;2023-04-29T00:12:52;13.70;99.90
2030;DHT22;1020;48.854;8.830;2023-04-29T00:15:19;13.70;99.90
2030;DHT22;1020;48.854;8.830;2023-04-29T00:17:46;13.70;99.90
2030;DHT22;1020;48.854;8.830;2023-04-29T00:20:14;13.70;99.90
2030;DHT22;1020;48.854;8.830;2023-04-29T00:22:42;13.70;99.90
2030;DHT22;1020;48.854;8.830;2023-04-29T00:25:09;13.70;99.90
2030;DHT22;1020;48.854;8.830;2023-04-29T00:27:36;13.60;99.90
2030;DHT22;1020;48.854;8.830;2023-04-29T00:30:05;13.60;99.90
2030;DHT22;1020;48.854;8.830;2023-04-29T00:32:32;13.60;99.90
2030;DHT22;1020;48.854;8.830;2023-04-29T00:34:59;13.60;99.90
2030;DHT22;1020;48.854;8.830;2023-04-29T00:37:28;13.60;99.90
2030;DHT22;1020;48.854;8.830;2023-04-29T00:39:54;13.60;99.90
2030;DHT22;1020;48.854;8.830;2023-04-29T00:42:21;13.50;99.90
2030;DHT22;1020;48.854;8.830;2023-04-29T00:44:48;13.60;99.90
2030;DHT22;1020;48.854;8.830;2023-04-29T00:47:15;13.50;99.90
2030;DHT22;1020;48.854;8.830;2023-04-29T00:49:42;13.50;99.90
2030;DHT22;1020;48.854;8.830;2023-04-29T00:52:10;13.50;99.90
2030;DHT22;1020;48.854;8.830;2023-04-29T00:54:38;13.50;99.90
2030;DHT22;1020;48.854;8.830;2023-04-29T00:57:06;13.40;99.90
2030;DHT22;1020;48.854;8.830;2023-04-29T00:59:33;13.40;99.90
2030;DHT22;1020;48.854;8.830;2023-04-29T01:02:00;13.40;99.90
2030;DHT22;1020;48.854;8.830;2023-04-29T01:04:27;13.40;99.90
2030;DHT22;1020;48.854;8.830;2023-04-29T01:07:00;13.40;99.90
2030;DHT22;1020;48.854;8.830;2023-04-29T01:09:42;13.30;99.90
2030;DHT22;1020;48.854;8.830;2023-04-29T01:12:19;14.80;99.90
2030;DHT22;1020;48.854;8.830;2023-04-29T01:14:53;13.30;99.90
2030;DHT22;1020;48.854;8.830;2023-04-29T01:17:24;13.30;99.90
2030;DHT22;1020;48.854;8.830;2023-04-29T01:19:54;13.30;99.90
2030;DHT22;1020;48.854;8.830;2023-04-29T01:22:22;13.20;99.90
2030;DHT22;1020;48.854;8.830;2023-04-29T01:24:50;13.20;99.90
2030;DHT22;1020;48.854;8.830;2023-04-29T01:27:26;13.20;99.90
2030;DHT22;1020;48.854;8.830;2023-04-29T01:29:58;13.20;99.90
2030;DHT22;1020;48.854;8.830;2023-04-29T01:32:34;13.20;99.90
2030;DHT22;1020;48.854;8.830;2023-04-29T01:35:10;13.10;99.90
2030;DHT22;1020;48.854;8.830;2023-04-29T01:37:45;13.10;99.90
2030;DHT22;1020;48.854;8.830;2023-04-29T01:40:19;13.10;99.90
2030;DHT22;1020;48.854;8.830;2023-04-29T01:42:57;13.10;99.90
2030;DHT22;1020;48.854;8.830;2023-04-29T01:45:26;13.00;99.90
2030;DHT22;1020;48.854;8.830;2023-04-29T01:47:54;13.00;99.90
2030;DHT22;1020;48.854;8.830;2023-04-29T01:50:21;13.00;99.90
2030;DHT22;1020;48.854;8.830;2023-04-29T01:52:48;13.00;99.90
2030;DHT22;1020;48.854;8.830;2023-04-29T01:55:16;13.00;99.90
2030;DHT22;1020;48.854;8.830;2023-04-29T01:57:43;12.90;99.90
2030;DHT22;1020;48.854;8.830;2023-04-29T02:00:10;12.90;99.90
2030;DHT22;1020;48.854;8.830;2023-04-29T02:02:37;12.90;99.90
2030;DHT22;1020;48.854;8.830;2023-04-29T02:05:04;12.90;99.90
2030;DHT22;1020;48.854;8.830;2023-04-29T02:07:31;12.80;99.90
2030;DHT22;1020;48.854;8.830;2023-04-29T02:09:58;12.80;99.90
2030;DHT22;1020;48.854;8.830;2023-04-29T02:12:26;12.80;99.90
2030;DHT22;1020;48.854;8.830;2023-04-29T02:14:53;12.80;99.90
2030;DHT22;1020;48.854;8.830;2023-04-29T02:17:20;12.80;99.90
2030;DHT22;1020;48.854;8.830;2023-04-29T02:19:46;12.80;99.90
2030;DHT22;1020;48.854;8.830;2023-04-29T02:22:13;12.70;99.90
2030;DHT22;1020;48.854;8.830;2023-04-29T02:24:40;12.70;99.90
2030;DHT22;1020;48.854;8.830;2023-04-29T02:27:06;12.70;99.90
2030;DHT22;1020;48.854;8.830;2023-04-29T02:29:35;12.70;99.90
2030;DHT22;1020;48.854;8.830;2023-04-29T02:32:02;12.70;99.90
2030;DHT22;1020;48.854;8.830;2023-04-29T02:34:29;12.70;99.90
2030;DHT22;1020;48.854;8.830;2023-04-29T02:36:56;12.60;99.90
2030;DHT22;1020;48.854;8.830;2023-04-29T02:39:23;12.60;99.90
2030;DHT22;1020;48.854;8.830;2023-04-29T02:41:53;12.60;99.90
2030;DHT22;1020;48.854;8.830;2023-04-29T02:44:20;12.50;99.90
2030;DHT22;1020;48.854;8.830;2023-04-29T02:46:48;12.50;99.90
2030;DHT22;1020;48.854;8.830;2023-04-29T02:49:14;12.50;99.90
2030;DHT22;1020;48.854;8.830;2023-04-29T02:51:41;12.50;99.90
2030;DHT22;1020;48.854;8.830;2023-04-29T02:54:08;12.50;99.90
2030;DHT22;1020;48.854;8.830;2023-04-29T02:56:35;12.50;99.90
2030;DHT22;1020;48.854;8.830;2023-04-29T02:59:02;12.40;99.90
2030;DHT22;1020;48.854;8.830;2023-04-29T03:01:29;12.30;99.90
2030;DHT22;1020;48.854;8.830;2023-04-29T03:03:57;12.30;99.90
2030;DHT22;1020;48.854;8.830;2023-04-29T03:06:23;12.30;99.90
2030;DHT22;1020;48.854;8.830;2023-04-29T03:08:50;12.20;99.90
2030;DHT22;1020;48.854;8.830;2023-04-29T03:11:18;12.20;99.90
2030;DHT22;1020;48.854;8.830;2023-04-29T03:13:45;12.10;99.90
2030;DHT22;1020;48.854;8.830;2023-04-29T03:16:11;12.10;99.90
2030;DHT22;1020;48.854;8.830;2023-04-29T03:18:41;12.00;99.90
2030;DHT22;1020;48.854;8.830;2023-04-29T03:21:09;12.00;99.90
2030;DHT22;1020;48.854;8.830;2023-04-29T03:23:36;12.00;99.90
2030;DHT22;1020;48.854;8.830;2023-04-29T03:26:04;11.90;99.90
2030;DHT22;1020;48.854;8.830;2023-04-29T03:28:31;11.90;99.90
2030;DHT22;1020;48.854;8.830;2023-04-29T03:30:58;11.80;99.90
2030;DHT22;1020;48.854;8.830;2023-04-29T03:33:24;11.80;99.90
2030;DHT22;1020;48.854;8.830;2023-04-29T03:35:51;11.80;99.90
2030;DHT22;1020;48.854;8.830;2023-04-29T03:38:19;11.80;99.90
2030;DHT22;1020;48.854;8.830;2023-04-29T03:40:46;11.80;99.90
2030;DHT22;1020;48.854;8.830;2023-04-29T03:43:13;11.80;99.90
2030;DHT22;1020;48.854;8.830;2023-04-29T03:45:40;11.70;99.90
2030;DHT22;1020;48.854;8.830;2023-04-29T03:48:07;11.70;99.90
2030;DHT22;1020;48.854;8.830;2023-04-29T03:50:34;11.70;99.90
2030;DHT22;1020;48.854;8.830;2023-04-29T03:53:01;11.70;99.90
2030;DHT22;1020;48.854;8.830;2023-04-29T03:55:29;11.60;99.90
2030;DHT22;1020;48.854;8.830;2023-04-29T03:57:56;11.60;99.90
2030;DHT22;1020;48.854;8.830;2023-04-29T04:00:23;11.60;99.90
2030;DHT22;1020;48.854;8.830;2023-04-29T04:02:50;11.60;99.90
2030;DHT22;1020;48.854;8.830;2023-04-29T04:05:17;11.50;99.90
2030;DHT22;1020;48.854;8.830;2023-04-29T04:07:45;11.60;99.90
2030;DHT22;1020;48.854;8.830;2023-04-29T04:10:12;11.50;99.90
2030;DHT22;1020;48.854;8.830;2023-04-29T04:12:40;11.50;99.90
2030;DHT22;1020;48.854;8.830;2023-04-29T04:15:08;11.50;99.90
2030;DHT22;1020;48.854;8.830;2023-04-29T04:17:35;11.50;99.90
2030;DHT22;1020;48.854;8.830;2023-04-29T04:20:01;11.40;99.90
2030;DHT22;1020;48.854;8.830;2023-04-29T04:22:28;11.40;99.90
2030;DHT22;1020;48.854;8.830;2023-04-29T04:24:55;11.40;99.90
2030;DHT22;1020;48.854;8.830;2023-04-29T04:27:22;11.40;99.90
2030;DHT22;1020;48.854;8.830;2023-04-29T04:29:53;11.40;99.90
2030;DHT22;1020;48.854;8.830;2023-04-29T04:32:20;11.30;99.90
2030;DHT22;1020;48.854;8.830;2023-04-29T04:34:48;11.40;99.90
2030;DHT22;1020;48.854;8.830;2023-04-29T04:37:15;11.30;99.90
2030;DHT22;1020;48.854;8.830;2023-04-29T04:39:42;11.30;99.90
2030;DHT22;1020;48.854;8.830;2023-04-29T04:42:08;11.30;99.90
2030;DHT22;1020;48.854;8.830;2023-04-29T04:44:35;11.30;99.90
2030;DHT22;1020;48.854;8.830;2023-04-29T04:47:03;11.30;99.90
2030;DHT22;1020;48.854;8.830;2023-04-29T04:49:30;11.30;99.90
2030;DHT22;1020;48.854;8.830;2023-04-29T04:51:57;11.30;99.90
2030;DHT22;1020;48.854;8.830;2023-04-29T04:54:24;11.30;99.90
2030;DHT22;1020;48.854;8.830;2023-04-29T04:56:50;11.30;99.90
2030;DHT22;1020;48.854;8.830;2023-04-29T04:59:17;11.30;99.90
2030;DHT22;1020;48.854;8.830;2023-04-29T05:01:44;11.40;99.90
2030;DHT22;1020;48.854;8.830;2023-04-29T05:04:12;11.40;99.90
2030;DHT22;1020;48.854;8.830;2023-04-29T05:06:39;11.40;99.90
2030;DHT22;1020;48.854;8.830;2023-04-29T05:09:06;11.40;99.90
2030;DHT22;1020;48.854;8.830;2023-04-29T05:11:33;11.50;99.90
2030;DHT22;1020;48.854;8.830;2023-04-29T05:14:00;11.50;99.90
2030;DHT22;1020;48.854;8.830;2023-04-29T05:16:26;11.60;99.90
2030;DHT22;1020;48.854;8.830;2023-04-29T05:18:53;11.60;99.90
2030;DHT22;1020;48.854;8.830;2023-04-29T05:21:21;11.60;99.90
2030;DHT22;1020;48.854;8.830;2023-04-29T05:23:48;11.70;99.90
2030;DHT22;1020;48.854;8.830;2023-04-29T05:26:14;11.70;99.90
2030;DHT22;1020;48.854;8.830;2023-04-29T05:28:41;11.70;99.90
2030;DHT22;1020;48.854;8.830;2023-04-29T05:31:08;11.70;99.90
2030;DHT22;1020;48.854;8.830;2023-04-29T05:33:35;11.80;99.90
2030;DHT22;1020;48.854;8.830;2023-04-29T05:36:02;11.80;99.90
2030;DHT22;1020;48.854;8.830;2023-04-29T05:38:30;11.70;99.90
2030;DHT22;1020;48.854;8.830;2023-04-29T05:40:57;11.60;99.90
2030;DHT22;1020;48.854;8.830;2023-04-29T05:43:24;11.60;99.90
2030;DHT22;1020;48.854;8.830;2023-04-29T05:45:51;11.60;99.90
2030;DHT22;1020;48.854;8.830;2023-04-29T05:48:18;11.60;99.90
2030;DHT22;1020;48.854;8.830;2023-04-29T05:50:45;11.60;99.90
2030;DHT22;1020;48.854;8.830;2023-04-29T05:53:12;11.60;99.90
2030;DHT22;1020;48.854;8.830;2023-04-29T05:55:40;11.70;99.90
2030;DHT22;1020;48.854;8.830;2023-04-29T05:58:09;11.60;99.90
2030;DHT22;1020;48.854;8.830;2023-04-29T06:00:36;11.70;99.90
2030;DHT22;1020;48.854;8.830;2023-04-29T06:03:03;11.70;99.90
2030;DHT22;1020;48.854;8.830;2023-04-29T06:05:29;11.70;99.90
2030;DHT22;1020;48.854;8.830;2023-04-29T06:07:56;11.80;99.90
2030;DHT22;1020;48.854;8.830;2023-04-29T06:10:23;11.80;99.90
2030;DHT22;1020;48.854;8.830;2023-04-29T06:12:51;11.80;99.90
2030;DHT22;1020;48.854;8.830;2023-04-29T06:15:18;11.90;99.90
2030;DHT22;1020;48.854;8.830;2023-04-29T06:17:45;11.90;99.90
2030;DHT22;1020;48.854;8.830;2023-04-29T06:20:12;12.00;99.90
2030;DHT22;1020;48.854;8.830;2023-04-29T06:22:38;12.00;99.90
2030;DHT22;1020;48.854;8.830;2023-04-29T06:25:06;12.10;99.90
2030;DHT22;1020;48.854;8.830;2023-04-29T06:27:33;12.00;99.90
2030;DHT22;1020;48.854;8.830;2023-04-29T06:30:01;12.00;99.90
2030;DHT22;1020;48.854;8.830;2023-04-29T06:32:27;12.10;99.90
2030;DHT22;1020;48.854;8.830;2023-04-29T06:34:54;12.20;99.90
2030;DHT22;1020;48.854;8.830;2023-04-29T06:37:21;12.30;99.90
2030;DHT22;1020;48.854;8.830;2023-04-29T06:39:48;12.40;99.90
2030;DHT22;1020;48.854;8.830;2023-04-29T06:42:15;12.30;99.90
2030;DHT22;1020;48.854;8.830;2023-04-29T06:44:42;12.30;99.90
2030;DHT22;1020;48.854;8.830;2023-04-29T06:47:10;12.30;99.90
2030;DHT22;1020;48.854;8.830;2023-04-29T06:49:37;12.40;99.90
2030;DHT22;1020;48.854;8.830;2023-04-29T06:52:04;12.30;99.90
2030;DHT22;1020;48.854;8.830;2023-04-29T06:54:31;12.40;99.90
2030;DHT22;1020;48.854;8.830;2023-04-29T06:56:58;12.70;99.90
2030;DHT22;1020;48.854;8.830;2023-04-29T06:59:25;12.80;99.90
2030;DHT22;1020;48.854;8.830;2023-04-29T07:01:51;13.10;99.90
2030;DHT22;1020;48.854;8.830;2023-04-29T07:04:19;13.30;99.90
2030;DHT22;1020;48.854;8.830;2023-04-29T07:06:47;13.30;99.90
2030;DHT22;1020;48.854;8.830;2023-04-29T07:09:13;13.30;99.90
2030;DHT22;1020;48.854;8.830;2023-04-29T07:11:40;13.30;99.90
2030;DHT22;1020;48.854;8.830;2023-04-29T07:14:07;13.20;90.00
2030;DHT22;1020;48.854;8.830;2023-04-29T07:16:34;13.10;99.90
2030;DHT22;1020;48.854;8.830;2023-04-29T07:19:01;12.90;99.90
2030;DHT22;1020;48.854;8.830;2023-04-29T07:21:29;12.90;99.90
2030;DHT22;1020;48.854;8.830;2023-04-29T07:23:57;12.80;99.90
2030;DHT22;1020;48.854;8.830;2023-04-29T07:26:25;12.70;99.90
2030;DHT22;1020;48.854;8.830;2023-04-29T07:28:52;12.50;99.90
2030;DHT22;1020;48.854;8.830;2023-04-29T07:31:19;12.60;99.90
2030;DHT22;1020;48.854;8.830;2023-04-29T07:33:46;12.80;99.90
2030;DHT22;1020;48.854;8.830;2023-04-29T07:36:13;13.10;99.90
2030;DHT22;1020;48.854;8.830;2023-04-29T07:38:41;13.30;91.90
2030;DHT22;1020;48.854;8.830;2023-04-29T07:41:08;13.40;48.40
2030;DHT22;1020;48.854;8.830;2023-04-29T07:43:35;13.30;51.00
2030;DHT22;1020;48.854;8.830;2023-04-29T07:46:01;13.10;77.40
2030;DHT22;1020;48.854;8.830;2023-04-29T07:48:28;13.00;91.90
2030;DHT22;1020;48.854;8.830;2023-04-29T07:50:55;12.90;90.70
2030;DHT22;1020;48.854;8.830;2023-04-29T07:53:21;12.90;97.30
2030;DHT22;1020;48.854;8.830;2023-04-29T07:55:49;12.90;98.20
2030;DHT22;1020;48.854;8.830;2023-04-29T07:58:16;13.00;99.90
2030;DHT22;1020;48.854;8.830;2023-04-29T08:00:43;13.00;77.70
2030;DHT22;1020;48.854;8.830;2023-04-29T08:03:10;13.00;77.00
2030;DHT22;1020;48.854;8.830;2023-04-29T08:05:37;12.90;77.20
2030;DHT22;1020;48.854;8.830;2023-04-29T08:08:04;12.90;68.70
2030;DHT22;1020;48.854;8.830;2023-04-29T08:10:31;12.90;90.30
2030;DHT22;1020;48.854;8.830;2023-04-29T08:13:00;12.90;98.00
2030;DHT22;1020;48.854;8.830;2023-04-29T08:15:26;13.00;93.90
2030;DHT22;1020;48.854;8.830;2023-04-29T08:17:54;13.20;93.40
2030;DHT22;1020;48.854;8.830;2023-04-29T08:20:20;13.40;73.30
2030;DHT22;1020;48.854;8.830;2023-04-29T08:22:47;12.70;26.10
2030;DHT22;1020;48.854;8.830;2023-04-29T08:25:14;12.40;11.80
2030;DHT22;1020;48.854;8.830;2023-04-29T08:27:41;13.70;3.60
2030;DHT22;1020;48.854;8.830;2023-04-29T08:30:12;13.90;1.00
2030;DHT22;1020;48.854;8.830;2023-04-29T08:32:38;14.10;1.00
2030;DHT22;1020;48.854;8.830;2023-04-29T08:35:06;14.10;1.00
2030;DHT22;1020;48.854;8.830;2023-04-29T08:37:33;14.00;1.00
2030;DHT22;1020;48.854;8.830;2023-04-29T08:40:00;14.10;1.00
2030;DHT22;1020;48.854;8.830;2023-04-29T08:42:32;14.40;1.00
2030;DHT22;1020;48.854;8.830;2023-04-29T08:44:59;14.80;1.00
2030;DHT22;1020;48.854;8.830;2023-04-29T08:47:29;14.80;1.00
2030;DHT22;1020;48.854;8.830;2023-04-29T08:49:56;13.90;1.00
2030;DHT22;1020;48.854;8.830;2023-04-29T08:52:23;14.50;1.00
2030;DHT22;1020;48.854;8.830;2023-04-29T08:54:50;14.90;1.00
2030;DHT22;1020;48.854;8.830;2023-04-29T08:57:18;15.20;1.00
2030;DHT22;1020;48.854;8.830;2023-04-29T08:59:46;15.30;99.90
2030;DHT22;1020;48.854;8.830;2023-04-29T09:02:15;13.60;99.90
2030;DHT22;1020;48.854;8.830;2023-04-29T09:04:52;15.00;99.90
2030;DHT22;1020;48.854;8.830;2023-04-29T09:07:21;15.00;99.90
2030;DHT22;1020;48.854;8.830;2023-04-29T09:09:48;14.70;99.90
2030;DHT22;1020;48.854;8.830;2023-04-29T09:12:16;14.50;99.90
2030;DHT22;1020;48.854;8.830;2023-04-29T09:14:43;14.30;1.00
2030;DHT22;1020;48.854;8.830;2023-04-29T09:17:10;14.20;1.00
2030;DHT22;1020;48.854;8.830;2023-04-29T09:19:37;14.00;1.00
2030;DHT22;1020;48.854;8.830;2023-04-29T09:22:05;13.80;1.00
2030;DHT22;1020;48.854;8.830;2023-04-29T09:24:32;13.80;1.00
2030;DHT22;1020;48.854;8.830;2023-04-29T09:27:00;13.70;1.00
2030;DHT22;1020;48.854;8.830;2023-04-29T09:29:27;13.80;1.00
2030;DHT22;1020;48.854;8.830;2023-04-29T09:31:55;13.90;1.00
2030;DHT22;1020;48.854;8.830;2023-04-29T09:34:30;13.90;1.00
2030;DHT22;1020;48.854;8.830;2023-04-29T09:36:57;13.90;1.00
2030;DHT22;1020;48.854;8.830;2023-04-29T09:39:25;14.00;1.00
2030;DHT22;1020;48.854;8.830;2023-04-29T09:41:59;14.10;1.00
2030;DHT22;1020;48.854;8.830;2023-04-29T09:44:29;14.00;1.00
2030;DHT22;1020;48.854;8.830;2023-04-29T09:46:57;13.90;1.00
2030;DHT22;1020;48.854;8.830;2023-04-29T09:49:26;13.80;1.00
2030;DHT22;1020;48.854;8.830;2023-04-29T09:51:54;13.70;1.00
2030;DHT22;1020;48.854;8.830;2023-04-29T09:54:21;13.70;1.00
2030;DHT22;1020;48.854;8.830;2023-04-29T09:56:51;13.80;1.00
2030;DHT22;1020;48.854;8.830;2023-04-29T09:59:18;13.90;1.00
2030;DHT22;1020;48.854;8.830;2023-04-29T10:01:47;13.90;1.00
2030;DHT22;1020;48.854;8.830;2023-04-29T10:04:16;13.80;1.00
2030;DHT22;1020;48.854;8.830;2023-04-29T10:06:44;13.80;1.00
2030;DHT22;1020;48.854;8.830;2023-04-29T10:09:13;13.70;1.00
2030;DHT22;1020;48.854;8.830;2023-04-29T10:11:41;13.50;1.00
2030;DHT22;1020;48.854;8.830;2023-04-29T10:14:12;13.30;1.00
2030;DHT22;1020;48.854;8.830;2023-04-29T10:16:45;13.30;1.00
2030;DHT22;1020;48.854;8.830;2023-04-29T10:19:17;13.40;1.00
2030;DHT22;1020;48.854;8.830;2023-04-29T10:21:46;13.60;1.00
2030;DHT22;1020;48.854;8.830;2023-04-29T10:24:16;13.60;1.00
2030;DHT22;1020;48.854;8.830;2023-04-29T10:26:43;13.70;1.00
2030;DHT22;1020;48.854;8.830;2023-04-29T10:29:12;14.00;1.00
2030;DHT22;1020;48.854;8.830;2023-04-29T10:31:40;14.20;1.00
2030;DHT22;1020;48.854;8.830;2023-04-29T10:34:08;14.10;1.00
2030;DHT22;1020;48.854;8.830;2023-04-29T10:36:36;14.40;99.90
2030;DHT22;1020;48.854;8.830;2023-04-29T10:39:04;14.60;1.00
2030;DHT22;1020;48.854;8.830;2023-04-29T10:41:36;14.80;99.90
2030;DHT22;1020;48.854;8.830;2023-04-29T10:44:03;15.10;99.90
2030;DHT22;1020;48.854;8.830;2023-04-29T10:46:32;15.80;1.00
2030;DHT22;1020;48.854;8.830;2023-04-29T10:49:01;16.40;99.90
2030;DHT22;1020;48.854;8.830;2023-04-29T10:51:30;16.50;1.00
2030;DHT22;1020;48.854;8.830;2023-04-29T10:53:58;16.40;1.00
2030;DHT22;1020;48.854;8.830;2023-04-29T10:56:35;16.40;1.00
2030;DHT22;1020;48.854;8.830;2023-04-29T10:59:02;16.20;1.00
2030;DHT22;1020;48.854;8.830;2023-04-29T11:01:48;16.10;1.00
2030;DHT22;1020;48.854;8.830;2023-04-29T11:04:17;16.00;99.90
2030;DHT22;1020;48.854;8.830;2023-04-29T11:06:46;16.40;99.90
2030;DHT22;1020;48.854;8.830;2023-04-29T11:09:17;16.20;1.00
2030;DHT22;1020;48.854;8.830;2023-04-29T11:11:59;16.00;99.90
2030;DHT22;1020;48.854;8.830;2023-04-29T11:14:31;16.40;1.00
2030;DHT22;1020;48.854;8.830;2023-04-29T11:17:01;16.50;99.90
2030;DHT22;1020;48.854;8.830;2023-04-29T11:19:33;16.30;99.90
2030;DHT22;1020;48.854;8.830;2023-04-29T11:22:24;16.10;1.00
2030;DHT22;1020;48.854;8.830;2023-04-29T11:24:52;16.30;9.90
2030;DHT22;1020;48.854;8.830;2023-04-29T11:27:20;16.90;1.00
2030;DHT22;1020;48.854;8.830;2023-04-29T11:29:50;17.40;1.00
2030;DHT22;1020;48.854;8.830;2023-04-29T11:32:21;17.70;3.90
2030;DHT22;1020;48.854;8.830;2023-04-29T11:34:48;18.00;1.00
2030;DHT22;1020;48.854;8.830;2023-04-29T11:37:19;18.50;1.00
2030;DHT22;1020;48.854;8.830;2023-04-29T11:39:47;18.50;99.90
2030;DHT22;1020;48.854;8.830;2023-04-29T11:42:18;18.50;99.90
2030;DHT22;1020;48.854;8.830;2023-04-29T11:44:45;18.60;99.90
2030;DHT22;1020;48.854;8.830;2023-04-29T11:47:12;18.20;99.90
2030;DHT22;1020;48.854;8.830;2023-04-29T11:49:40;18.30;99.90
2030;DHT22;1020;48.854;8.830;2023-04-29T11:52:07;18.40;99.90
2030;DHT22;1020;48.854;8.830;2023-04-29T11:54:34;18.40;99.90
2030;DHT22;1020;48.854;8.830;2023-04-29T11:57:01;18.00;99.90
2030;DHT22;1020;48.854;8.830;2023-04-29T11:59:30;17.90;99.90
2030;DHT22;1020;48.854;8.830;2023-04-29T12:01:57;17.80;1.00
2030;DHT22;1020;48.854;8.830;2023-04-29T12:04:24;17.70;99.90
2030;DHT22;1020;48.854;8.830;2023-04-29T12:06:52;17.10;1.00
2030;DHT22;1020;48.854;8.830;2023-04-29T12:09:22;17.50;99.90
2030;DHT22;1020;48.854;8.830;2023-04-29T12:11:49;17.20;1.00
2030;DHT22;1020;48.854;8.830;2023-04-29T12:14:16;17.10;99.90
2030;DHT22;1020;48.854;8.830;2023-04-29T12:16:43;17.20;1.00
2030;DHT22;1020;48.854;8.830;2023-04-29T12:19:10;16.90;1.00
2030;DHT22;1020;48.854;8.830;2023-04-29T12:21:47;16.90;1.00
2030;DHT22;1020;48.854;8.830;2023-04-29T12:24:15;16.80;1.00
2030;DHT22;1020;48.854;8.830;2023-04-29T12:26:44;16.30;1.00
2030;DHT22;1020;48.854;8.830;2023-04-29T12:29:12;16.10;99.90
2030;DHT22;1020;48.854;8.830;2023-04-29T12:31:38;16.10;99.90
2030;DHT22;1020;48.854;8.830;2023-04-29T12:34:06;16.30;99.90
2030;DHT22;1020;48.854;8.830;2023-04-29T12:36:33;16.50;99.90
2030;DHT22;1020;48.854;8.830;2023-04-29T12:39:04;16.60;1.00
2030;DHT22;1020;48.854;8.830;2023-04-29T12:41:39;16.80;1.00
2030;DHT22;1020;48.854;8.830;2023-04-29T12:44:07;16.90;1.00
2030;DHT22;1020;48.854;8.830;2023-04-29T12:46:35;16.80;1.00
2030;DHT22;1020;48.854;8.830;2023-04-29T12:49:02;16.80;1.00
2030;DHT22;1020;48.854;8.830;2023-04-29T12:51:30;17.20;99.90
2030;DHT22;1020;48.854;8.830;2023-04-29T12:53:58;17.60;99.90
2030;DHT22;1020;48.854;8.830;2023-04-29T12:56:25;17.40;99.90
2030;DHT22;1020;48.854;8.830;2023-04-29T12:58:53;17.50;99.90
2030;DHT22;1020;48.854;8.830;2023-04-29T13:01:20;17.50;99.90
2030;DHT22;1020;48.854;8.830;2023-04-29T13:03:47;17.50;99.90
2030;DHT22;1020;48.854;8.830;2023-04-29T13:06:15;17.60;99.90
2030;DHT22;1020;48.854;8.830;2023-04-29T13:08:42;17.90;99.90
2030;DHT22;1020;48.854;8.830;2023-04-29T13:11:09;18.00;38.40
2030;DHT22;1020;48.854;8.830;2023-04-29T13:13:37;17.80;95.30
2030;DHT22;1020;48.854;8.830;2023-04-29T13:16:06;17.50;99.90
2030;DHT22;1020;48.854;8.830;2023-04-29T13:18:33;17.50;99.90
2030;DHT22;1020;48.854;8.830;2023-04-29T13:21:00;17.50;99.90
2030;DHT22;1020;48.854;8.830;2023-04-29T13:23:27;17.60;99.90
2030;DHT22;1020;48.854;8.830;2023-04-29T13:25:53;17.20;99.90
2030;DHT22;1020;48.854;8.830;2023-04-29T13:28:20;17.00;99.90
2030;DHT22;1020;48.854;8.830;2023-04-29T13:30:48;16.90;99.90
2030;DHT22;1020;48.854;8.830;2023-04-29T13:33:16;16.50;99.90
2030;DHT22;1020;48.854;8.830;2023-04-29T13:35:43;16.40;1.00
2030;DHT22;1020;48.854;8.830;2023-04-29T13:38:11;16.60;99.90
2030;DHT22;1020;48.854;8.830;2023-04-29T13:40:38;16.20;1.00
2030;DHT22;1020;48.854;8.830;2023-04-29T13:43:04;16.20;7.30
2030;DHT22;1020;48.854;8.830;2023-04-29T13:45:32;16.40;1.00
2030;DHT22;1020;48.854;8.830;2023-04-29T13:47:59;16.10;99.90
2030;DHT22;1020;48.854;8.830;2023-04-29T13:50:27;16.20;99.90
2030;DHT22;1020;48.854;8.830;2023-04-29T13:52:54;16.10;99.90
2030;DHT22;1020;48.854;8.830;2023-04-29T13:55:21;15.60;99.90
2030;DHT22;1020;48.854;8.830;2023-04-29T13:57:47;15.50;1.00
2030;DHT22;1020;48.854;8.830;2023-04-29T14:00:15;15.60;1.00
2030;DHT22;1020;48.854;8.830;2023-04-29T14:02:43;14.30;99.90
2030;DHT22;1020;48.854;8.830;2023-04-29T14:05:10;15.90;1.00
2030;DHT22;1020;48.854;8.830;2023-04-29T14:07:38;15.80;99.90
2030;DHT22;1020;48.854;8.830;2023-04-29T14:10:05;16.00;99.90
2030;DHT22;1020;48.854;8.830;2023-04-29T14:12:40;15.90;99.90
2030;DHT22;1020;48.854;8.830;2023-04-29T14:15:08;15.80;99.90
2030;DHT22;1020;48.854;8.830;2023-04-29T14:17:35;15.80;99.90
2030;DHT22;1020;48.854;8.830;2023-04-29T14:20:02;15.70;99.90
2030;DHT22;1020;48.854;8.830;2023-04-29T14:22:28;15.90;99.90
2030;DHT22;1020;48.854;8.830;2023-04-29T14:24:56;15.90;99.90
2030;DHT22;1020;48.854;8.830;2023-04-29T14:27:23;15.90;99.90
2030;DHT22;1020;48.854;8.830;2023-04-29T14:29:51;15.70;99.90
2030;DHT22;1020;48.854;8.830;2023-04-29T14:32:18;15.70;99.90
2030;DHT22;1020;48.854;8.830;2023-04-29T14:34:45;15.60;99.90
2030;DHT22;1020;48.854;8.830;2023-04-29T14:37:11;15.50;99.90
2030;DHT22;1020;48.854;8.830;2023-04-29T14:39:38;15.60;99.90
2030;DHT22;1020;48.854;8.830;2023-04-29T14:42:06;15.50;99.90
2030;DHT22;1020;48.854;8.830;2023-04-29T14:44:33;15.40;99.90
2030;DHT22;1020;48.854;8.830;2023-04-29T14:47:00;15.40;99.90
2030;DHT22;1020;48.854;8.830;2023-04-29T14:49:27;15.40;99.90
2030;DHT22;1020;48.854;8.830;2023-04-29T14:51:53;15.20;99.90
2030;DHT22;1020;48.854;8.830;2023-04-29T14:54:20;15.10;99.90
2030;DHT22;1020;48.854;8.830;2023-04-29T14:56:47;15.10;99.90
2030;DHT22;1020;48.854;8.830;2023-04-29T14:59:15;15.00;99.90
2030;DHT22;1020;48.854;8.830;2023-04-29T15:01:42;14.80;93.40
2030;DHT22;1020;48.854;8.830;2023-04-29T15:04:09;14.80;99.90
2030;DHT22;1020;48.854;8.830;2023-04-29T15:06:37;14.70;99.90
2030;DHT22;1020;48.854;8.830;2023-04-29T15:09:04;14.70;99.90
2030;DHT22;1020;48.854;8.830;2023-04-29T15:11:32;14.60;99.90
2030;DHT22;1020;48.854;8.830;2023-04-29T15:13:59;14.60;99.90
2030;DHT22;1020;48.854;8.830;2023-04-29T15:16:28;16.00;99.90
2030;DHT22;1020;48.854;8.830;2023-04-29T15:18:56;14.30;99.90
2030;DHT22;1020;48.854;8.830;2023-04-29T15:21:22;15.40;99.90
2030;DHT22;1020;48.854;8.830;2023-04-29T15:23:49;14.40;99.90
2030;DHT22;1020;48.854;8.830;2023-04-29T15:26:16;16.10;99.90
2030;DHT22;1020;48.854;8.830;2023-04-29T15:28:42;14.20;99.90
2030;DHT22;1020;48.854;8.830;2023-04-29T15:31:10;14.10;99.90
2030;DHT22;1020;48.854;8.830;2023-04-29T15:33:38;14.00;99.90
2030;DHT22;1020;48.854;8.830;2023-04-29T15:36:06;14.10;99.90
2030;DHT22;1020;48.854;8.830;2023-04-29T15:38:32;14.20;99.90
2030;DHT22;1020;48.854;8.830;2023-04-29T15:40:59;14.30;38.50
2030;DHT22;1020;48.854;8.830;2023-04-29T15:43:27;14.30;38.40
2030;DHT22;1020;48.854;8.830;2023-04-29T15:45:54;14.40;23.30
2030;DHT22;1020;48.854;8.830;2023-04-29T15:48:21;14.20;1.00
2030;DHT22;1020;48.854;8.830;2023-04-29T15:50:52;14.10;1.00
2030;DHT22;1020;48.854;8.830;2023-04-29T15:53:19;15.80;35.00
2030;DHT22;1020;48.854;8.830;2023-04-29T15:55:46;13.90;59.40
2030;DHT22;1020;48.854;8.830;2023-04-29T15:58:12;13.80;92.40
2030;DHT22;1020;48.854;8.830;2023-04-29T16:00:39;13.80;92.00
2030;DHT22;1020;48.854;8.830;2023-04-29T16:03:08;13.90;85.60
2030;DHT22;1020;48.854;8.830;2023-04-29T16:05:35;15.60;85.80
2030;DHT22;1020;48.854;8.830;2023-04-29T16:08:08;13.90;99.90